createdAt,value
2017-03-25T00:00:37.464Z,69.55
2017-03-25T00:01:18.189Z,69.65
2017-03-25T00:01:58.742Z,69.65
2017-03-25T00:02:39.407Z,69.55
2017-03-25T00:03:20.024Z,69.46
2017-03-25T00:04:00.700Z,70.12
2017-03-25T00:04:41.349Z,70.21
2017-03-25T00:05:22.043Z,69.93
2017-03-25T00:06:02.657Z,70.03
2017-03-25T00:06:43.292Z,69.84
2017-03-25T00:07:23.888Z,70.4
2017-03-25T00:08:04.502Z,70.21
2017-03-25T00:08:45.156Z,70.69
2017-03-25T00:09:25.725Z,70.59
2017-03-25T00:10:06.367Z,70.5
2017-03-25T00:10:46.993Z,70.59
2017-03-25T00:11:27.559Z,70.59
2017-03-25T00:12:08.238Z,70.78
2017-03-25T00:12:48.878Z,70.69
2017-03-25T00:13:29.527Z,71.17
2017-03-25T00:14:10.183Z,71.07
2017-03-25T00:14:50.843Z,70.84
2017-03-25T00:15:31.488Z,70.88
2017-03-25T00:16:12.141Z,70.88
2017-03-25T00:16:52.830Z,71.26
2017-03-25T00:17:34.469Z,71.13
2017-03-25T00:18:16.148Z,71.41
2017-03-25T00:18:56.797Z,71.41
2017-03-25T00:19:37.459Z,71.32
2017-03-25T00:20:18.105Z,71.32
2017-03-25T00:20:58.749Z,71.22
2017-03-25T00:21:39.405Z,71.98
2017-03-25T00:22:20.080Z,71.8
2017-03-25T00:23:00.763Z,71.89
2017-03-25T00:23:41.409Z,71.7
2017-03-25T00:24:22.064Z,71.8
2017-03-25T00:25:03.750Z,71.8
2017-03-25T00:25:46.442Z,72.17
2017-03-25T00:26:27.192Z,72.08
2017-03-25T00:27:07.886Z,72.17
2017-03-25T00:27:48.502Z,72.17
2017-03-25T00:28:29.217Z,71.6
2017-03-25T00:29:09.911Z,71.7
2017-03-25T00:29:50.618Z,71.98
2017-03-25T00:30:31.173Z,71.89
2017-03-25T00:31:11.844Z,71.8
2017-03-25T00:31:52.526Z,71.89
2017-03-25T00:32:33.220Z,71.8
2017-03-25T00:33:13.783Z,72.27
2017-03-25T00:33:54.437Z,72.17
2017-03-25T00:34:35.120Z,72.36
2017-03-25T00:35:15.823Z,72.08
2017-03-25T00:35:56.395Z,72.17
2017-03-25T00:36:37.456Z,72.08
2017-03-25T00:37:18.146Z,72.45
2017-03-25T00:37:58.740Z,72.64
2017-03-25T00:38:39.309Z,72.17
2017-03-25T00:39:19.985Z,72.74
2017-03-25T00:40:00.664Z,72.36
2017-03-25T00:40:42.378Z,72.64
2017-03-25T00:41:22.949Z,72.45
2017-03-25T00:42:03.604Z,72.55
2017-03-25T00:42:45.426Z,72.17
2017-03-25T00:43:26.116Z,72.36
2017-03-25T00:44:06.685Z,72.27
2017-03-25T00:44:47.342Z,72.45
2017-03-25T00:45:27.939Z,72.27
2017-03-25T00:46:08.543Z,72.64
2017-03-25T00:46:49.111Z,72.84
2017-03-25T00:47:29.859Z,72.64
2017-03-25T00:48:10.539Z,72.36
2017-03-25T00:48:51.131Z,72.93
2017-03-25T00:49:31.709Z,72.84
2017-03-25T00:50:12.386Z,72.64
2017-03-25T00:50:53.058Z,72.93
2017-03-25T00:51:33.647Z,72.84
2017-03-25T00:52:14.309Z,73.31
2017-03-25T00:52:54.893Z,72.84
2017-03-25T00:53:36.632Z,72.84
2017-03-25T00:54:17.394Z,73.03
2017-03-25T00:54:58.038Z,72.64
2017-03-25T00:55:38.803Z,72.64
2017-03-25T00:56:19.556Z,72.64
2017-03-25T00:57:00.205Z,72.84
2017-03-25T00:57:41.888Z,72.84
2017-03-25T00:58:22.637Z,72.84
2017-03-25T00:59:03.206Z,72.74
2017-03-25T00:59:44.968Z,72.55
2017-03-25T01:00:25.621Z,72.93
2017-03-25T01:01:06.365Z,72.84
2017-03-25T01:01:46.953Z,73.03
2017-03-25T01:02:27.725Z,73.03
2017-03-25T01:03:08.397Z,73.03
2017-03-25T01:03:49.095Z,73.22
2017-03-25T01:04:29.677Z,72.93
2017-03-25T01:05:11.329Z,72.74
2017-03-25T01:05:52.034Z,73.6
2017-03-25T01:06:32.736Z,72.93
2017-03-25T01:07:13.383Z,73.41
2017-03-25T01:07:55.060Z,72.84
2017-03-25T01:08:36.733Z,73.22
2017-03-25T01:09:17.389Z,73.41
2017-03-25T01:09:57.962Z,73.41
2017-03-25T01:10:38.598Z,73.41
2017-03-25T01:11:20.268Z,73.31
2017-03-25T01:12:00.842Z,73.22
2017-03-25T01:12:42.497Z,73.41
2017-03-25T01:13:23.131Z,73.12
2017-03-25T01:14:04.719Z,73.12
2017-03-25T01:14:45.282Z,73.31
2017-03-25T01:15:25.950Z,73.41
2017-03-25T01:16:06.538Z,73.41
2017-03-25T01:16:47.124Z,73.31
2017-03-25T01:17:27.690Z,73.03
2017-03-25T01:18:08.344Z,73.69
2017-03-25T01:18:49.017Z,73.79
2017-03-25T01:19:29.650Z,73.6
2017-03-25T01:20:10.708Z,73.65
2017-03-25T01:20:51.364Z,73.46
2017-03-25T01:21:32.033Z,73.46
2017-03-25T01:22:12.660Z,73.56
2017-03-25T01:22:53.235Z,73.79
2017-03-25T01:23:33.895Z,73.5
2017-03-25T01:24:14.516Z,73.75
2017-03-25T01:24:55.077Z,73.65
2017-03-25T01:25:35.735Z,74.03
2017-03-25T01:26:16.367Z,74.26
2017-03-25T01:26:56.951Z,73.5
2017-03-25T01:27:37.585Z,73.75
2017-03-25T01:28:18.181Z,74.22
2017-03-25T01:28:58.785Z,74.22
2017-03-25T01:29:39.344Z,73.84
2017-03-25T01:30:20.020Z,73.94
2017-03-25T01:31:00.594Z,73.94
2017-03-25T01:31:41.179Z,73.88
2017-03-25T01:32:21.738Z,74.03
2017-03-25T01:33:02.417Z,74.03
2017-03-25T01:33:43.056Z,73.84
2017-03-25T01:34:23.709Z,74.13
2017-03-25T01:35:04.376Z,74.22
2017-03-25T01:35:45.006Z,74.13
2017-03-25T01:36:25.681Z,73.94
2017-03-25T01:37:06.330Z,73.94
2017-03-25T01:37:46.984Z,73.94
2017-03-25T01:38:27.668Z,73.94
2017-03-25T01:39:08.273Z,73.94
2017-03-25T01:39:48.938Z,74.22
2017-03-25T01:40:29.590Z,74.32
2017-03-25T01:41:10.269Z,74.32
2017-03-25T01:41:50.931Z,74.41
2017-03-25T01:42:31.534Z,74.32
2017-03-25T01:43:27.057Z,74.22
2017-03-25T01:44:07.598Z,74.13
2017-03-25T01:44:49.179Z,74.32
2017-03-25T01:45:29.776Z,74.22
2017-03-25T01:46:10.366Z,74.22
2017-03-25T01:46:50.918Z,74.22
2017-03-25T01:47:31.593Z,74.79
2017-03-25T01:48:12.239Z,74.69
2017-03-25T01:48:52.893Z,74.51
2017-03-25T01:49:33.541Z,74.69
2017-03-25T01:50:14.195Z,74.51
2017-03-25T01:50:54.835Z,74.41
2017-03-25T01:51:35.511Z,74.88
2017-03-25T01:52:16.094Z,74.69
2017-03-25T01:52:56.686Z,74.79
2017-03-25T01:53:37.261Z,74.69
2017-03-25T01:54:17.911Z,74.69
2017-03-25T01:54:58.503Z,74.69
2017-03-25T01:55:39.066Z,74.6
2017-03-25T01:56:19.630Z,74.69
2017-03-25T01:57:00.201Z,74.88
2017-03-25T01:57:40.807Z,75.07
2017-03-25T01:58:21.398Z,75.26
2017-03-25T01:59:01.993Z,74.69
2017-03-25T01:59:42.613Z,75.45
2017-03-25T02:00:23.215Z,75.36
2017-03-25T02:01:03.805Z,75.36
2017-03-25T02:01:44.379Z,75.45
2017-03-25T02:02:25.030Z,75.36
2017-03-25T02:03:05.666Z,75.36
2017-03-25T02:03:46.387Z,75.07
2017-03-25T02:04:26.990Z,75.17
2017-03-25T02:05:07.643Z,75.36
2017-03-25T02:05:48.278Z,75.55
2017-03-25T02:06:28.949Z,75.26
2017-03-25T02:07:09.611Z,75.26
2017-03-25T02:07:50.259Z,75.36
2017-03-25T02:08:30.903Z,75.36
2017-03-25T02:09:11.558Z,75.36
2017-03-25T02:09:52.214Z,75.74
2017-03-25T02:10:32.857Z,75.64
2017-03-25T02:11:13.509Z,75.74
2017-03-25T02:11:54.174Z,75.45
2017-03-25T02:12:34.761Z,75.74
2017-03-25T02:13:15.350Z,75.74
2017-03-25T02:13:55.903Z,75.45
2017-03-25T02:14:37.508Z,75.84
2017-03-25T02:15:18.194Z,76.21
2017-03-25T02:15:58.783Z,76.03
2017-03-25T02:16:39.345Z,76.31
2017-03-25T02:17:19.989Z,76.03
2017-03-25T02:18:00.676Z,75.93
2017-03-25T02:18:41.326Z,75.84
2017-03-25T02:19:21.976Z,76.03
2017-03-25T02:20:02.610Z,76.21
2017-03-25T02:20:43.293Z,76.12
2017-03-25T02:21:23.940Z,75.93
2017-03-25T02:22:04.574Z,76.12
2017-03-25T02:22:45.229Z,76.03
2017-03-25T02:23:27.830Z,76.59
2017-03-25T02:24:08.502Z,76.59
2017-03-25T02:25:01.036Z,76.4
2017-03-25T02:25:46.587Z,76.59
2017-03-25T02:26:43.128Z,76.4
2017-03-25T02:27:39.555Z,76.31
2017-03-25T02:28:20.208Z,76.5
2017-03-25T02:29:11.601Z,76.12
2017-03-25T02:32:58.009Z,76.55
2017-03-25T02:33:38.657Z,76.17
2017-03-25T02:34:19.316Z,76.59
2017-03-25T02:34:59.967Z,75.98
2017-03-25T02:35:40.630Z,76.17
2017-03-25T02:36:21.296Z,76.08
2017-03-25T02:37:01.910Z,76.46
2017-03-25T02:37:43.496Z,76.27
2017-03-25T02:38:24.147Z,76.27
2017-03-25T02:39:06.765Z,76.36
2017-03-25T02:39:47.398Z,76.17
2017-03-25T02:40:28.054Z,76.27
2017-03-25T02:41:08.720Z,76.27
2017-03-25T02:41:54.274Z,76.17
2017-03-25T02:52:04.593Z,76.65
2017-03-25T02:52:45.147Z,76.84
2017-03-25T02:53:27.880Z,77.03
2017-03-25T02:54:08.521Z,77.22
2017-03-25T02:54:49.114Z,77.22
2017-03-25T02:55:29.788Z,76.93
2017-03-25T02:56:22.382Z,76.93
2017-03-25T02:58:35.768Z,77.03
2017-03-25T02:59:16.336Z,76.74
2017-03-25T02:59:56.940Z,76.84
2017-03-25T03:00:39.586Z,76.84
2017-03-25T03:01:20.179Z,76.84
2017-03-25T03:02:00.838Z,76.93
2017-03-25T03:02:41.494Z,76.55
2017-03-25T03:03:22.211Z,77.03
2017-03-25T03:04:02.804Z,77.03
2017-03-25T03:04:43.452Z,76.93
2017-03-25T03:05:24.106Z,77.03
2017-03-25T03:06:06.733Z,76.93
2017-03-25T03:06:48.382Z,76.93
2017-03-25T03:07:28.986Z,76.84
2017-03-25T03:08:09.644Z,77.22
2017-03-25T03:08:50.275Z,77.03
2017-03-25T03:09:31.862Z,77.22
2017-03-25T03:10:13.539Z,77.4
2017-03-25T03:10:54.194Z,77.12
2017-03-25T03:11:34.859Z,77.22
2017-03-25T03:12:16.467Z,77.31
2017-03-25T03:12:57.023Z,76.93
2017-03-25T03:13:37.677Z,77.03
2017-03-25T03:14:19.251Z,77.4
2017-03-25T03:15:01.860Z,77.4
2017-03-25T03:15:42.410Z,77.4
2017-03-25T03:16:23.055Z,77.4
2017-03-25T03:17:05.693Z,77.5
2017-03-25T03:17:46.283Z,77.5
2017-03-25T03:18:26.865Z,77.31
2017-03-25T03:19:07.514Z,77.22
2017-03-25T03:19:48.107Z,77.31
2017-03-25T03:20:29.717Z,77.31
2017-03-25T03:21:10.286Z,77.5
2017-03-25T03:21:50.991Z,77.69
2017-03-25T03:22:31.642Z,77.88
2017-03-25T03:23:12.202Z,77.5
2017-03-25T03:23:52.812Z,77.59
2017-03-25T03:24:33.474Z,77.69
2017-03-25T03:25:14.085Z,77.78
2017-03-25T03:25:54.765Z,77.78
2017-03-25T03:26:35.410Z,77.88
2017-03-25T03:27:16.033Z,77.88
2017-03-25T03:27:56.660Z,77.59
2017-03-25T03:28:37.340Z,77.69
2017-03-25T03:29:17.935Z,77.78
2017-03-25T03:29:58.577Z,77.69
2017-03-25T03:30:39.169Z,77.78
2017-03-25T03:31:19.751Z,77.78
2017-03-25T03:32:00.319Z,77.69
2017-03-25T03:32:40.984Z,77.59
2017-03-25T03:33:21.622Z,77.69
2017-03-25T03:34:02.206Z,77.69
2017-03-25T03:34:42.828Z,77.69
2017-03-25T03:35:23.460Z,77.69
2017-03-25T03:36:04.034Z,77.78
2017-03-25T03:36:45.603Z,77.88
2017-03-25T03:37:26.261Z,77.97
2017-03-25T03:38:06.820Z,77.69
2017-03-25T03:38:47.475Z,77.88
2017-03-25T03:39:28.153Z,77.97
2017-03-25T03:40:08.793Z,77.78
2017-03-25T03:40:49.421Z,78.35
2017-03-25T03:41:30.481Z,78.07
2017-03-25T03:42:12.109Z,78.07
2017-03-25T03:42:52.697Z,78.35
2017-03-25T03:43:33.261Z,77.97
2017-03-25T03:44:13.924Z,78.07
2017-03-25T03:44:54.519Z,77.97
2017-03-25T03:45:35.117Z,78.26
2017-03-25T03:46:15.667Z,78.26
2017-03-25T03:46:56.328Z,78.07
2017-03-25T03:47:36.984Z,78.07
2017-03-25T03:48:17.628Z,78.35
2017-03-25T03:48:58.202Z,78.07
2017-03-25T03:49:38.828Z,77.97
2017-03-25T03:50:19.505Z,78.07
2017-03-25T03:51:00.138Z,78.35
2017-03-25T03:51:40.797Z,78.35
2017-03-25T03:52:21.475Z,78.07
2017-03-25T03:53:02.127Z,78.16
2017-03-25T03:53:42.758Z,78.07
2017-03-25T03:54:23.402Z,78.16
2017-03-25T03:55:04.049Z,78.16
2017-03-25T03:55:44.716Z,78.16
2017-03-25T03:56:25.372Z,78.16
2017-03-25T03:57:06.021Z,78.16
2017-03-25T03:57:46.616Z,78.26
2017-03-25T03:58:27.305Z,78.16
2017-03-25T03:59:07.866Z,78.16
2017-03-25T03:59:48.531Z,77.97
2017-03-25T04:00:29.226Z,77.97
2017-03-25T04:01:09.814Z,78.07
2017-03-25T04:01:50.388Z,78.07
2017-03-25T04:02:31.036Z,77.97
2017-03-25T04:03:11.676Z,78.16
2017-03-25T04:03:52.250Z,78.16
2017-03-25T04:04:32.904Z,78.16
2017-03-25T04:05:13.528Z,78.16
2017-03-25T04:05:54.092Z,78.07
2017-03-25T04:06:34.792Z,78.07
2017-03-25T04:07:15.382Z,78.16
2017-03-25T04:07:55.946Z,77.97
2017-03-25T04:08:36.593Z,77.97
2017-03-25T04:09:17.228Z,77.88
2017-03-25T04:09:57.780Z,78.07
2017-03-25T04:10:38.470Z,77.88
2017-03-25T04:11:19.097Z,77.78
2017-03-25T04:11:59.668Z,77.88
2017-03-25T04:12:40.309Z,77.97
2017-03-25T04:13:20.977Z,77.97
2017-03-25T04:14:01.620Z,78.07
2017-03-25T04:14:42.265Z,77.97
2017-03-25T04:15:22.956Z,78.16
2017-03-25T04:16:03.604Z,78.16
2017-03-25T04:16:44.224Z,78.35
2017-03-25T04:17:24.979Z,78.16
2017-03-25T04:18:05.623Z,78.16
2017-03-25T04:18:46.285Z,78.07
2017-03-25T04:19:26.990Z,78.07
2017-03-25T04:20:07.622Z,78.16
2017-03-25T04:20:48.258Z,78.07
2017-03-25T04:21:28.898Z,78.26
2017-03-25T04:22:09.550Z,78.16
2017-03-25T04:22:50.217Z,78.16
2017-03-25T04:23:30.867Z,78.16
2017-03-25T04:24:11.511Z,78.26
2017-03-25T04:24:52.161Z,78.07
2017-03-25T04:25:32.832Z,78.26
2017-03-25T04:26:13.468Z,78.07
2017-03-25T04:26:54.118Z,78.16
2017-03-25T04:27:34.719Z,77.97
2017-03-25T04:28:15.302Z,78.16
2017-03-25T04:28:55.855Z,78.26
2017-03-25T04:29:36.532Z,78.26
2017-03-25T04:30:17.125Z,78.54
2017-03-25T04:30:57.814Z,78.35
2017-03-25T04:31:38.368Z,78.54
2017-03-25T04:32:19.040Z,78.54
2017-03-25T04:32:59.676Z,78.54
2017-03-25T04:33:40.221Z,78.54
2017-03-25T04:34:20.895Z,78.64
2017-03-25T04:35:01.584Z,78.45
2017-03-25T04:35:42.156Z,78.35
2017-03-25T04:36:22.747Z,78.35
2017-03-25T04:37:03.382Z,78.16
2017-03-25T04:37:43.961Z,78.64
2017-03-25T04:38:24.608Z,78.35
2017-03-25T04:39:05.237Z,78.26
2017-03-25T04:39:45.812Z,78.26
2017-03-25T04:40:26.476Z,78.16
2017-03-25T04:41:07.090Z,78.16
2017-03-25T04:41:47.648Z,78.35
2017-03-25T04:42:28.321Z,78.64
2017-03-25T04:43:08.960Z,78.73
2017-03-25T04:43:49.621Z,78.35
2017-03-25T04:44:30.272Z,79.02
2017-03-25T04:45:10.927Z,78.73
2017-03-25T04:45:51.590Z,78.83
2017-03-25T04:46:32.240Z,78.73
2017-03-25T04:47:12.891Z,78.64
2017-03-25T04:47:53.548Z,78.73
2017-03-25T04:48:34.197Z,78.64
2017-03-25T04:49:14.871Z,78.79
2017-03-25T04:49:55.504Z,78.73
2017-03-25T04:50:36.161Z,78.73
2017-03-25T04:51:16.810Z,78.45
2017-03-25T04:51:57.463Z,78.64
2017-03-25T04:52:38.054Z,79.07
2017-03-25T04:53:18.657Z,78.98
2017-03-25T04:53:59.235Z,78.88
2017-03-25T04:54:39.876Z,78.98
2017-03-25T04:55:20.564Z,79.07
2017-03-25T04:56:01.160Z,79.07
2017-03-25T04:56:41.722Z,79.17
2017-03-25T04:57:22.443Z,79.07
2017-03-25T04:58:03.112Z,78.88
2017-03-25T04:58:43.682Z,79.07
2017-03-25T04:59:24.337Z,78.88
2017-03-25T05:00:04.968Z,78.98
2017-03-25T05:00:45.542Z,79.07
2017-03-25T05:01:26.193Z,79.45
2017-03-25T05:02:06.872Z,79.36
2017-03-25T05:02:47.445Z,79.45
2017-03-25T05:03:28.046Z,79.26
2017-03-25T05:04:08.639Z,79.17
2017-03-25T05:04:49.242Z,79.26
2017-03-25T05:05:29.807Z,79.36
2017-03-25T05:06:10.453Z,79.55
2017-03-25T05:06:51.060Z,79.45
2017-03-25T05:07:31.648Z,79.36
2017-03-25T05:08:12.198Z,79.36
2017-03-25T05:08:52.911Z,79.74
2017-03-25T05:09:33.565Z,79.74
2017-03-25T05:10:14.146Z,79.83
2017-03-25T05:10:54.715Z,80.02
2017-03-25T05:11:35.370Z,80.11
2017-03-25T05:12:15.971Z,79.83
2017-03-25T05:12:56.553Z,80.02
2017-03-25T05:13:37.128Z,79.93
2017-03-25T05:14:17.780Z,79.74
2017-03-25T05:14:58.378Z,79.83
2017-03-25T05:15:38.959Z,79.64
2017-03-25T05:16:19.518Z,79.93
2017-03-25T05:17:00.181Z,79.93
2017-03-25T05:17:40.768Z,79.83
2017-03-25T05:18:21.366Z,80.02
2017-03-25T05:19:01.929Z,80.21
2017-03-25T05:19:42.609Z,80.02
2017-03-25T05:20:23.285Z,80.02
2017-03-25T05:21:03.875Z,79.83
2017-03-25T05:21:44.437Z,80.11
2017-03-25T05:22:25.110Z,79.93
2017-03-25T05:23:05.787Z,80.21
2017-03-25T05:23:46.393Z,80.3
2017-03-25T05:24:26.957Z,80.4
2017-03-25T05:25:07.614Z,80.4
2017-03-25T05:25:48.200Z,80.21
2017-03-25T05:26:28.790Z,80.3
2017-03-25T05:27:09.340Z,80.11
2017-03-25T05:27:50.014Z,80.11
2017-03-25T05:28:30.574Z,80.02
2017-03-25T05:29:11.145Z,80.11
2017-03-25T05:29:51.752Z,80.21
2017-03-25T05:30:32.339Z,79.93
2017-03-25T05:31:12.917Z,79.93
2017-03-25T05:31:53.528Z,79.93
2017-03-25T05:32:34.158Z,80.11
2017-03-25T05:33:14.768Z,80.11
2017-03-25T05:33:55.365Z,80.3
2017-03-25T05:34:36.034Z,80.68
2017-03-25T05:35:16.693Z,80.68
2017-03-25T05:35:57.335Z,80.77
2017-03-25T05:36:38.012Z,80.77
2017-03-25T05:37:18.638Z,80.58
2017-03-25T05:37:59.292Z,80.58
2017-03-25T05:38:39.953Z,80.58
2017-03-25T05:39:20.663Z,80.49
2017-03-25T05:40:01.259Z,80.58
2017-03-25T05:40:41.905Z,80.58
2017-03-25T05:41:22.605Z,80.3
2017-03-25T05:42:03.225Z,80.4
2017-03-25T05:42:43.862Z,80.3
2017-03-25T05:43:24.424Z,80.49
2017-03-25T05:44:05.064Z,80.4
2017-03-25T05:44:45.703Z,80.4
2017-03-25T05:45:26.265Z,80.4
2017-03-25T05:46:06.957Z,80.4
2017-03-25T05:46:47.554Z,80.3
2017-03-25T05:47:28.133Z,80.4
2017-03-25T05:48:09.080Z,80.4
2017-03-25T05:48:49.735Z,80.58
2017-03-25T05:49:30.400Z,80.4
2017-03-25T05:50:11.040Z,80.4
2017-03-25T05:50:51.695Z,80.4
2017-03-25T05:51:33.405Z,80.4
2017-03-25T05:52:14.024Z,80.4
2017-03-25T05:52:54.675Z,80.4
2017-03-25T05:53:35.326Z,80.4
2017-03-25T05:54:15.980Z,80.11
2017-03-25T05:54:56.652Z,80.49
2017-03-25T05:55:37.297Z,80.4
2017-03-25T05:56:17.962Z,80.4
2017-03-25T05:56:58.589Z,80.4
2017-03-25T05:57:39.244Z,80.4
2017-03-25T05:58:19.897Z,80.3
2017-03-25T05:59:00.554Z,80.4
2017-03-25T05:59:41.201Z,80.4
2017-03-25T06:00:21.855Z,80.58
2017-03-25T06:01:02.548Z,80.4
2017-03-25T06:01:43.144Z,80.4
2017-03-25T06:02:23.846Z,80.4
2017-03-25T06:03:04.516Z,80.49
2017-03-25T06:03:45.102Z,80.4
2017-03-25T06:04:25.710Z,80.4
2017-03-25T06:05:06.331Z,80.4
2017-03-25T06:05:47.022Z,80.49
2017-03-25T06:06:27.614Z,80.4
2017-03-25T06:07:08.196Z,80.3
2017-03-25T06:07:48.840Z,80.58
2017-03-25T06:08:29.501Z,80.58
2017-03-25T06:09:10.142Z,80.49
2017-03-25T06:09:50.806Z,80.44
2017-03-25T06:10:31.458Z,80.63
2017-03-25T06:11:12.108Z,80.53
2017-03-25T06:11:52.759Z,80.63
2017-03-25T06:12:33.401Z,80.72
2017-03-25T06:13:14.062Z,80.34
2017-03-25T06:13:54.718Z,80.34
2017-03-25T06:14:35.364Z,80.15
2017-03-25T06:15:16.011Z,80.06
2017-03-25T06:15:56.677Z,80.06
2017-03-25T06:16:37.331Z,80.34
2017-03-25T06:17:18.078Z,80.15
2017-03-25T06:17:58.713Z,80.25
2017-03-25T06:18:39.286Z,80.34
2017-03-25T06:19:19.964Z,80.34
2017-03-25T06:20:00.674Z,80.15
2017-03-25T06:20:41.236Z,80.44
2017-03-25T06:21:21.892Z,80.44
2017-03-25T06:22:02.523Z,79.96
2017-03-25T06:22:43.177Z,80.06
2017-03-25T06:23:23.879Z,80.06
2017-03-25T06:24:04.483Z,80.06
2017-03-25T06:24:45.135Z,80.25
2017-03-25T06:25:25.790Z,79.87
2017-03-25T06:26:06.444Z,79.77
2017-03-25T06:26:47.095Z,79.77
2017-03-25T06:27:27.748Z,79.96
2017-03-25T06:28:08.400Z,79.77
2017-03-25T06:28:49.063Z,79.68
2017-03-25T06:29:29.711Z,80.15
2017-03-25T06:30:10.360Z,80.06
2017-03-25T06:30:51.018Z,79.87
2017-03-25T06:31:31.674Z,80.25
2017-03-25T06:32:12.327Z,80.06
2017-03-25T06:32:52.981Z,79.87
2017-03-25T06:33:33.631Z,79.49
2017-03-25T06:34:14.275Z,79.49
2017-03-25T06:34:54.928Z,79.11
2017-03-25T06:35:35.580Z,79.58
2017-03-25T06:36:16.235Z,79.49
2017-03-25T06:36:56.893Z,79.3
2017-03-25T06:37:37.486Z,79.3
2017-03-25T06:38:18.110Z,79.21
2017-03-25T06:38:58.716Z,79.3
2017-03-25T06:39:39.395Z,79.3
2017-03-25T06:40:19.984Z,79.39
2017-03-25T06:41:00.618Z,79.49
2017-03-25T06:41:41.373Z,79.11
2017-03-25T06:42:22.001Z,79.02
2017-03-25T06:43:02.556Z,79.11
2017-03-25T06:43:43.230Z,78.92
2017-03-25T06:44:23.824Z,79.02
2017-03-25T06:45:04.413Z,79.21
2017-03-25T06:45:45.002Z,79.06
2017-03-25T06:46:25.637Z,79.06
2017-03-25T06:47:06.223Z,78.87
2017-03-25T06:47:46.796Z,78.67
2017-03-25T06:48:27.348Z,78.67
2017-03-25T06:49:07.952Z,78.67
2017-03-25T06:49:48.539Z,78.87
2017-03-25T06:50:29.123Z,78.87
2017-03-25T06:51:09.707Z,78.96
2017-03-25T06:51:50.342Z,79.06
2017-03-25T06:52:30.983Z,78.67
2017-03-25T06:53:11.555Z,78.2
2017-03-25T06:53:52.198Z,78.11
2017-03-25T06:54:32.836Z,78.39
2017-03-25T06:55:13.409Z,78.39
2017-03-25T06:55:54.067Z,78.49
2017-03-25T06:56:34.694Z,78.02
2017-03-25T06:57:15.278Z,78.3
2017-03-25T06:57:55.918Z,78.11
2017-03-25T06:58:36.506Z,78.2
2017-03-25T06:59:17.164Z,78.2
2017-03-25T06:59:57.732Z,78.11
2017-03-25T07:00:38.430Z,77.92
2017-03-25T07:01:19.015Z,77.83
2017-03-25T07:01:59.630Z,77.92
2017-03-25T07:02:40.200Z,77.54
2017-03-25T07:03:20.829Z,77.25
2017-03-25T07:04:01.427Z,77.35
2017-03-25T07:04:42.016Z,77.54
2017-03-25T07:05:22.624Z,77.25
2017-03-25T07:06:03.242Z,77.25
2017-03-25T07:06:43.828Z,76.97
2017-03-25T07:07:24.425Z,76.87
2017-03-25T07:08:05.072Z,77.06
2017-03-25T07:08:46.754Z,77.16
2017-03-25T07:09:27.505Z,76.78
2017-03-25T07:10:08.158Z,76.78
2017-03-25T07:10:48.811Z,76.87
2017-03-25T07:11:29.458Z,76.5
2017-03-25T07:12:10.116Z,76.63
2017-03-25T07:12:50.768Z,76.21
2017-03-25T07:13:31.408Z,76.31
2017-03-25T07:14:12.074Z,76.03
2017-03-25T07:14:52.732Z,76.54
2017-03-25T07:15:33.379Z,76.34
2017-03-25T07:16:14.052Z,76.44
2017-03-25T07:16:54.682Z,76.54
2017-03-25T07:17:35.343Z,76.06
2017-03-25T07:18:15.989Z,75.87
2017-03-25T07:18:56.648Z,76.25
2017-03-25T07:19:37.300Z,76.15
2017-03-25T07:20:17.950Z,75.49
2017-03-25T07:20:58.610Z,75.4
2017-03-25T07:21:39.249Z,75.59
2017-03-25T07:22:19.912Z,75.49
2017-03-25T07:23:00.598Z,75.21
2017-03-25T07:23:41.325Z,75.11
2017-03-25T07:24:22.038Z,75.4
2017-03-25T07:25:02.723Z,74.92
2017-03-25T07:25:43.378Z,74.45
2017-03-25T07:26:24.029Z,74.92
2017-03-25T07:27:04.682Z,74.73
2017-03-25T07:27:45.314Z,74.83
2017-03-25T07:28:25.906Z,74.26
2017-03-25T07:29:06.546Z,74.16
2017-03-25T07:29:47.115Z,74.35
2017-03-25T07:30:27.773Z,73.97
2017-03-25T07:31:08.402Z,73.97
2017-03-25T07:31:48.983Z,74.07
2017-03-25T07:32:29.617Z,73.79
2017-03-25T07:33:11.250Z,73.79
2017-03-25T07:33:51.805Z,73.63
2017-03-25T07:34:32.461Z,73.92
2017-03-25T07:35:13.111Z,73.72
2017-03-25T07:35:53.766Z,73.72
2017-03-25T07:36:34.435Z,73.72
2017-03-25T07:37:15.073Z,73.16
2017-03-25T07:37:55.670Z,73.44
2017-03-25T07:38:38.315Z,73.07
2017-03-25T07:39:18.954Z,72.88
2017-03-25T07:39:59.644Z,72.88
2017-03-25T07:40:40.219Z,73.35
2017-03-25T07:41:20.821Z,72.88
2017-03-25T07:42:01.404Z,72.3
2017-03-25T07:42:42.051Z,72.4
2017-03-25T07:43:22.636Z,72.4
2017-03-25T07:44:03.235Z,72.59
2017-03-25T07:44:43.804Z,72.21
2017-03-25T07:45:24.445Z,71.92
2017-03-25T07:46:06.063Z,72.02
2017-03-25T07:46:46.763Z,72.02
2017-03-25T07:47:27.407Z,72.11
2017-03-25T07:48:07.994Z,71.17
2017-03-25T07:48:48.578Z,71.2
2017-03-25T07:49:29.214Z,71.2
2017-03-25T07:50:09.866Z,70.44
2017-03-25T07:50:50.503Z,71.01
2017-03-25T07:51:31.096Z,69.96
2017-03-25T07:52:11.789Z,69.68
2017-03-25T07:52:52.346Z,69.59
2017-03-25T07:53:33.009Z,68.92
2017-03-25T07:54:13.577Z,68.73
2017-03-25T07:54:54.137Z,68.54
2017-03-25T07:55:34.765Z,68.44
2017-03-25T07:56:15.395Z,68.07
2017-03-25T07:56:55.967Z,68.07
2017-03-25T07:57:36.612Z,68.16
2017-03-25T07:58:17.280Z,68.16
2017-03-25T07:58:57.949Z,68.16
2017-03-25T07:59:38.587Z,68.07
2017-03-25T08:00:19.300Z,67.79
2017-03-25T08:00:59.887Z,67.31
2017-03-25T08:01:40.525Z,67.06
2017-03-25T08:02:21.189Z,67.44
2017-03-25T08:03:01.857Z,67.12
2017-03-25T08:03:42.513Z,67.06
2017-03-25T08:04:23.147Z,67.63
2017-03-25T08:05:03.798Z,67.15
2017-03-25T08:05:44.514Z,66.87
2017-03-25T08:06:25.089Z,66.2
2017-03-25T08:07:05.758Z,65.82
2017-03-25T08:07:46.406Z,65.82
2017-03-25T08:08:27.068Z,66.3
2017-03-25T08:09:07.736Z,66.2
2017-03-25T08:09:48.362Z,65.82
2017-03-25T08:10:29.044Z,65.63
2017-03-25T08:11:09.718Z,65.16
2017-03-25T08:11:50.328Z,64.87
2017-03-25T08:12:30.993Z,65.06
2017-03-25T08:13:11.562Z,65.16
2017-03-25T08:13:52.156Z,65.25
2017-03-25T08:14:32.736Z,65.16
2017-03-25T08:15:13.372Z,65.16
2017-03-25T08:15:53.983Z,64.59
2017-03-25T08:16:35.587Z,64.49
2017-03-25T08:17:16.164Z,64.49
2017-03-25T08:17:56.819Z,64.21
2017-03-25T08:18:37.394Z,63.76
2017-03-25T08:19:17.994Z,64.02
2017-03-25T08:19:58.555Z,64.05
2017-03-25T08:20:39.216Z,63.76
2017-03-25T08:21:19.925Z,63.57
2017-03-25T08:22:00.607Z,63.1
2017-03-25T08:22:41.195Z,63.29
2017-03-25T08:23:21.831Z,63.29
2017-03-25T08:24:02.486Z,63.2
2017-03-25T08:24:43.157Z,63.39
2017-03-25T08:25:23.810Z,63.57
2017-03-25T08:26:04.490Z,63.76
2017-03-25T08:26:45.100Z,63.1
2017-03-25T08:27:25.744Z,63.67
2017-03-25T08:28:06.348Z,63.39
2017-03-25T08:28:47.962Z,63.57
2017-03-25T08:29:28.663Z,63.1
2017-03-25T08:30:09.288Z,63.67
2017-03-25T08:30:49.883Z,63.67
2017-03-25T08:31:30.476Z,63.1
2017-03-25T08:32:11.024Z,62.81
2017-03-25T08:32:51.723Z,63.01
2017-03-25T08:33:32.342Z,63.29
2017-03-25T08:34:12.996Z,62.34
2017-03-25T08:34:53.660Z,62.62
2017-03-25T08:35:34.313Z,62.62
2017-03-25T08:36:15.019Z,62.81
2017-03-25T08:36:55.619Z,62.91
2017-03-25T08:37:36.281Z,62.65
2017-03-25T08:38:18.960Z,62.27
2017-03-25T08:38:59.640Z,62.46
2017-03-25T08:39:40.342Z,62.27
2017-03-25T08:40:20.962Z,61.42
2017-03-25T08:41:01.599Z,61.32
2017-03-25T08:41:42.226Z,60.38
2017-03-25T08:42:22.916Z,60.66
2017-03-25T08:43:03.544Z,60.18
2017-03-25T08:43:44.592Z,60.28
2017-03-25T08:44:25.268Z,59.9
2017-03-25T08:45:05.899Z,59.9
2017-03-25T08:45:46.553Z,60.21
2017-03-25T08:46:27.204Z,59.9
2017-03-25T08:47:07.899Z,60.12
2017-03-25T08:47:48.552Z,59.74
2017-03-25T08:48:29.163Z,60.12
2017-03-25T08:49:09.735Z,60.41
2017-03-25T08:49:50.442Z,60.31
2017-03-25T08:50:31.121Z,60.31
2017-03-25T08:51:11.696Z,60.12
2017-03-25T08:51:53.349Z,60.21
2017-03-25T08:52:33.977Z,60.21
2017-03-25T08:53:14.549Z,59.74
2017-03-25T08:53:55.217Z,60.21
2017-03-25T08:54:35.895Z,59.64
2017-03-25T08:55:16.524Z,59.74
2017-03-25T08:55:57.198Z,59.17
2017-03-25T08:56:37.944Z,59.36
2017-03-25T08:57:18.694Z,58.98
2017-03-25T08:58:00.374Z,58.69
2017-03-25T08:58:41.107Z,58.59
2017-03-25T08:59:21.882Z,58.72
2017-03-25T09:00:02.635Z,58.81
2017-03-25T09:00:44.314Z,58.79
2017-03-25T09:01:25.071Z,58.91
2017-03-25T09:02:06.207Z,58.34